Postojna, Slovenia
Current Conditions -  °F | °C
As of 7:55 AM on Thursday 27 Nov 2014 (Local Time) from LIVT Reporting Station
Clear Clear  
Wind Chill: 40°   Ceiling: Unl
Heat Index: 46°   Visibility: 6mi
Dew Point: 36°   Wind: 15mph
Humidity: 66%   Direction: 50°NE
Pressure: 29.97"   Gusts: 26mph
Location:  45.78°N, 14.22°E
Report Text: LIVT 270655Z 05013G23KT CAVOK 08/02 Q1015 RMK OVC FEW070 BKN080 QUK 2 QUL 1 NE VIS MAR 18 KM VIS MIN 9999
Loading
Personal Weather Stations






























Interactive Weather Map New forecast layout! Learn more

10-Day Weather Forecast

Advertisements
Track Severe Weather on mobile